メインページ
METAR-TAF:

METAR-TAF

空港 :

Adrian, ミシガン州, アメリカ合衆国

緯度: 41-52-04N, 経度: 084-04-46W, 海抜: 244m

現時点の気象観測

当レポートは58分前の09:53(UTC)に作成
西の風 4kt
気温 -10°C
湿度 61%
気圧 1026 hPa
視程: 16.1km
晴天

METAR: KADG 230953Z AUTO 28004KT 10SM CLR M10/M16 A3029 RMK AO2 SLP273 T11001156 $

時間: 05:51 (10:51 UTC)


TAF: 見つかりません

4,000以上の空港の気象観測と天気予報(METAR報とTAF報)

利用可能な観測所は地図上に黄色い丸と赤い丸で示す。

丸の上にカーソルを重ねると観測所名を参照できる。

次にクリックすると気象観測と天気予報を参照できる。

マップの切り替え:黒色「×」印の緑ボタンをクリックして拡大、「-」印の緑ボタンをクリックして縮小、緑色の三角印をクリックして隣りの地図に切り替え


METAR-TAF: